createdAt,value
2022-11-01T00:01:01.732Z,85.04
2022-11-01T00:03:29.080Z,84.93
2022-11-01T00:05:56.460Z,85.24
2022-11-01T00:08:23.740Z,85.48
2022-11-01T00:10:50.905Z,85.00
2022-11-01T00:13:18.391Z,84.25
2022-11-01T00:15:45.586Z,84.19
2022-11-01T00:18:12.811Z,84.82
2022-11-01T00:20:39.996Z,84.98
2022-11-01T00:23:25.026Z,86.43
2022-11-01T00:25:52.286Z,86.24
2022-11-01T00:28:19.722Z,86.53
2022-11-01T00:30:47.023Z,86.36
2022-11-01T00:33:14.230Z,86.94
2022-11-01T00:35:41.425Z,87.53
2022-11-01T00:38:08.896Z,87.73
2022-11-01T00:40:36.199Z,87.14
2022-11-01T00:43:03.498Z,86.85
2022-11-01T00:45:30.730Z,88.41
2022-11-01T00:47:58.720Z,88.34
2022-11-01T00:50:26.713Z,88.44
2022-11-01T00:52:53.927Z,88.48
2022-11-01T00:55:21.226Z,88.67
2022-11-01T00:57:48.507Z,88.48
2022-11-01T01:00:15.905Z,88.94
2022-11-01T01:02:43.278Z,88.98
2022-11-01T01:05:10.695Z,89.08
2022-11-01T01:07:38.141Z,89.82
2022-11-01T01:10:06.618Z,89.60
2022-11-01T01:12:34.124Z,89.26
2022-11-01T01:15:01.822Z,89.49
2022-11-01T01:17:32.793Z,89.42
2022-11-01T01:20:01.162Z,88.59
2022-11-01T01:22:28.920Z,88.45
2022-11-01T01:24:56.408Z,88.25
2022-11-01T01:27:24.038Z,87.31
2022-11-01T01:29:52.229Z,87.74
2022-11-01T01:32:22.144Z,88.17
2022-11-01T01:34:50.194Z,87.99
2022-11-01T01:37:18.092Z,87.83
2022-11-01T01:39:45.288Z,87.87
2022-11-01T01:42:30.983Z,86.57
2022-11-01T01:45:01.446Z,85.89
2022-11-01T01:47:36.563Z,86.61
2022-11-01T01:50:18.229Z,86.96
2022-11-01T01:53:00.747Z,86.74
2022-11-01T01:55:35.004Z,86.55
2022-11-01T01:58:03.528Z,86.75
2022-11-01T02:00:30.931Z,86.69
2022-11-01T02:02:58.543Z,86.97
2022-11-01T02:05:37.837Z,87.16
2022-11-01T02:08:06.796Z,87.26
2022-11-01T02:10:38.402Z,87.52
2022-11-01T02:13:14.422Z,87.50
2022-11-01T02:15:58.886Z,87.32
2022-11-01T02:18:41.850Z,88.23
2022-11-01T02:21:39.621Z,87.96
2022-11-01T02:24:31.475Z,88.19
2022-11-01T02:27:11.537Z,88.08
2022-11-01T02:30:14.270Z,88.86
2022-11-01T02:32:47.772Z,88.11
2022-11-01T02:35:18.340Z,87.72
2022-11-01T02:38:09.149Z,88.53
2022-11-01T02:40:55.359Z,88.40
2022-11-01T02:43:29.780Z,87.95
2022-11-01T02:45:59.555Z,88.10
2022-11-01T02:48:26.792Z,88.25
2022-11-01T02:50:57.143Z,88.29
2022-11-01T02:53:24.835Z,88.34
2022-11-01T02:55:53.367Z,89.05
2022-11-01T02:58:24.488Z,89.10
2022-11-01T03:00:52.081Z,88.81
2022-11-01T03:03:23.918Z,88.36
2022-11-01T03:06:01.791Z,88.36
2022-11-01T03:08:44.777Z,89.35
2022-11-01T03:11:24.316Z,89.02
2022-11-01T03:14:39.035Z,89.21
2022-11-01T03:17:28.792Z,88.87
2022-11-01T03:20:09.338Z,89.62
2022-11-01T03:22:39.649Z,89.08
2022-11-01T03:25:34.459Z,89.79
2022-11-01T03:28:07.232Z,89.67
2022-11-01T03:30:40.033Z,89.33
2022-11-01T03:33:07.482Z,89.70
2022-11-01T03:35:38.548Z,90.25
2022-11-01T03:38:09.995Z,90.64
2022-11-01T03:40:39.762Z,89.70
2022-11-01T03:43:11.956Z,90.54
2022-11-01T03:45:40.784Z,90.10
2022-11-01T03:48:08.353Z,90.24
2022-11-01T03:50:36.021Z,90.36
2022-11-01T03:53:03.246Z,90.41
2022-11-01T03:55:30.645Z,90.05
2022-11-01T03:57:59.711Z,90.15
2022-11-01T04:00:33.607Z,90.08
2022-11-01T04:03:01.715Z,90.57
2022-11-01T04:05:31.472Z,89.77
2022-11-01T04:07:59.082Z,90.31
2022-11-01T04:10:29.817Z,90.60
2022-11-01T04:12:59.168Z,90.01
2022-11-01T04:15:27.757Z,90.64
2022-11-01T04:18:14.875Z,89.50
2022-11-01T04:20:42.113Z,89.62
2022-11-01T04:23:09.392Z,89.76
2022-11-01T04:25:36.691Z,90.40
2022-11-01T04:28:04.103Z,89.42
2022-11-01T04:30:31.318Z,89.64
2022-11-01T04:32:58.715Z,86.29
2022-11-01T04:35:26.063Z,78.02
2022-11-01T04:37:59.807Z,77.90
2022-11-01T04:40:27.353Z,76.17
2022-11-01T04:42:54.690Z,78.64
2022-11-01T04:45:21.999Z,74.58
2022-11-01T04:47:49.232Z,83.24
2022-11-01T04:50:17.327Z,76.19
2022-11-01T04:52:45.005Z,74.75
2022-11-01T04:55:12.762Z,76.38
2022-11-01T04:57:56.570Z,76.59
2022-11-01T05:00:24.454Z,74.20
2022-11-01T05:03:01.684Z,75.18
2022-11-01T05:05:35.928Z,73.33
2022-11-01T05:08:07.350Z,72.87
2022-11-01T05:10:37.797Z,73.16
2022-11-01T05:13:07.037Z,73.86
2022-11-01T05:15:53.591Z,75.16
2022-11-01T05:18:32.328Z,78.74
2022-11-01T05:21:00.150Z,79.84
2022-11-01T05:23:27.353Z,80.50
2022-11-01T05:25:54.589Z,81.09
2022-11-01T05:28:22.770Z,82.08
2022-11-01T05:30:55.456Z,81.62
2022-11-01T05:33:25.911Z,81.63
2022-11-01T05:35:53.555Z,81.92
2022-11-01T05:38:20.814Z,82.04
2022-11-01T05:40:48.046Z,81.37
2022-11-01T05:43:15.588Z,81.53
2022-11-01T05:45:43.141Z,82.08
2022-11-01T05:48:17.688Z,80.57
2022-11-01T05:50:51.342Z,79.12
2022-11-01T05:53:25.106Z,80.51
2022-11-01T05:55:57.879Z,79.79
2022-11-01T05:58:29.577Z,79.34
2022-11-01T06:01:05.895Z,79.14
2022-11-01T06:03:36.477Z,79.40
2022-11-01T06:06:04.999Z,80.83
2022-11-01T06:08:32.590Z,79.83
2022-11-01T06:11:05.287Z,80.07
2022-11-01T06:13:33.826Z,78.93
2022-11-01T06:16:05.287Z,81.61
2022-11-01T06:18:36.366Z,77.47
2022-11-01T06:21:09.575Z,76.03
2022-11-01T06:23:39.633Z,74.43
2022-11-01T06:26:09.781Z,75.51
2022-11-01T06:28:39.753Z,76.71
2022-11-01T06:31:10.071Z,75.93
2022-11-01T06:33:38.054Z,75.83
2022-11-01T06:36:06.282Z,74.75
2022-11-01T06:38:36.323Z,75.66
2022-11-01T06:41:06.029Z,75.71
2022-11-01T06:43:33.536Z,74.96
2022-11-01T06:46:01.274Z,75.10
2022-11-01T06:48:28.962Z,75.65
2022-11-01T06:50:56.527Z,75.75
2022-11-01T06:53:27.634Z,75.95
2022-11-01T06:55:58.519Z,76.51
2022-11-01T06:58:27.138Z,77.57
2022-11-01T07:00:54.473Z,76.95
2022-11-01T07:03:24.628Z,77.34
2022-11-01T07:05:59.249Z,77.82
2022-11-01T07:08:29.819Z,78.05
2022-11-01T07:11:00.662Z,77.23
2022-11-01T07:13:28.697Z,77.20
2022-11-01T07:15:59.590Z,74.56
2022-11-01T07:18:27.116Z,74.55
2022-11-01T07:20:57.405Z,71.42
2022-11-01T07:23:27.639Z,70.50
2022-11-01T07:25:57.791Z,71.92
2022-11-01T07:28:29.163Z,70.50
2022-11-01T07:30:57.161Z,68.62
2022-11-01T07:33:29.649Z,67.49
2022-11-01T07:35:57.189Z,67.08
2022-11-01T07:38:30.051Z,67.39
2022-11-01T07:40:57.296Z,66.87
2022-11-01T07:43:24.990Z,66.83
2022-11-01T07:45:58.990Z,67.17
2022-11-01T07:48:29.115Z,65.84
2022-11-01T07:51:02.808Z,65.52
2022-11-01T07:53:35.371Z,66.13
2022-11-01T07:56:07.192Z,66.08
2022-11-01T07:58:34.716Z,65.91
2022-11-01T08:01:08.103Z,65.83
2022-11-01T08:03:39.550Z,65.01
2022-11-01T08:06:08.163Z,64.92
2022-11-01T08:08:38.844Z,65.14
2022-11-01T08:11:08.627Z,65.71
2022-11-01T08:13:38.645Z,65.62
2022-11-01T08:16:09.655Z,65.47
2022-11-01T08:18:40.192Z,65.82
2022-11-01T08:21:10.782Z,67.03
2022-11-01T08:23:44.324Z,67.12
2022-11-01T08:26:15.318Z,67.23
2022-11-01T08:28:45.618Z,67.34
2022-11-01T08:31:19.025Z,67.76
2022-11-01T08:33:46.655Z,67.77
2022-11-01T08:36:16.423Z,67.48
2022-11-01T08:38:50.581Z,67.15
2022-11-01T08:41:17.862Z,67.40
2022-11-01T08:43:45.619Z,66.59
2022-11-01T08:46:13.341Z,67.20
2022-11-01T08:48:40.753Z,66.79
2022-11-01T08:51:13.883Z,66.17
2022-11-01T08:53:44.407Z,66.70
2022-11-01T08:56:12.079Z,66.56
2022-11-01T08:58:42.494Z,66.32
2022-11-01T09:01:17.661Z,66.03
2022-11-01T09:03:48.341Z,64.57
2022-11-01T09:06:15.741Z,64.62
2022-11-01T09:08:43.027Z,65.11
2022-11-01T09:11:18.235Z,63.90
2022-11-01T09:13:48.264Z,64.17
2022-11-01T09:16:19.508Z,64.15
2022-11-01T09:18:47.392Z,63.54
2022-11-01T09:21:31.855Z,63.46
2022-11-01T09:24:09.879Z,63.70
2022-11-01T09:26:43.603Z,62.23
2022-11-01T09:29:12.508Z,61.64
2022-11-01T09:31:42.761Z,62.67
2022-11-01T09:34:10.041Z,59.27
2022-11-01T09:36:44.066Z,60.34
2022-11-01T09:39:14.591Z,60.63
2022-11-01T09:41:56.955Z,61.47
2022-11-01T09:44:33.370Z,60.59
2022-11-01T09:47:13.022Z,60.63
2022-11-01T09:49:44.146Z,60.76
2022-11-01T09:52:26.535Z,60.76
2022-11-01T09:54:53.769Z,61.01
2022-11-01T09:57:43.880Z,60.30
2022-11-01T10:00:20.938Z,60.57
2022-11-01T10:03:12.885Z,60.63
2022-11-01T10:05:46.119Z,60.37
2022-11-01T10:08:31.442Z,61.12
2022-11-01T10:12:02.604Z,60.82
2022-11-01T10:14:41.919Z,60.78
2022-11-01T10:17:19.821Z,60.64
2022-11-01T10:19:50.897Z,60.89
2022-11-01T10:22:40.298Z,59.84
2022-11-01T10:25:19.664Z,59.83
2022-11-01T10:28:04.178Z,60.52
2022-11-01T10:30:43.079Z,59.04
2022-11-01T10:33:16.573Z,59.23
2022-11-01T10:35:49.457Z,58.94
2022-11-01T10:38:50.028Z,58.76
2022-11-01T10:41:49.396Z,58.70
2022-11-01T10:44:34.655Z,59.11
2022-11-01T10:47:10.886Z,59.19
2022-11-01T10:50:04.929Z,58.92
2022-11-01T10:52:58.588Z,58.60
2022-11-01T10:55:52.331Z,58.27
2022-11-01T10:58:30.820Z,59.50
2022-11-01T11:01:03.431Z,59.53
2022-11-01T11:03:31.529Z,59.49
2022-11-01T11:06:08.902Z,58.84
2022-11-01T11:08:40.709Z,58.68
2022-11-01T11:11:12.730Z,57.70
2022-11-01T11:13:54.943Z,57.59
2022-11-01T11:16:47.212Z,58.32
2022-11-01T11:19:22.629Z,56.56
2022-11-01T11:21:58.709Z,55.81
2022-11-01T11:24:32.389Z,55.96
2022-11-01T11:27:02.219Z,56.40
2022-11-01T11:29:50.037Z,56.11
2022-11-01T11:32:24.318Z,56.66
2022-11-01T11:34:55.184Z,55.95
2022-11-01T11:37:28.984Z,55.74
2022-11-01T11:40:24.031Z,55.96
2022-11-01T11:42:56.330Z,56.45
2022-11-01T11:45:31.158Z,55.66
2022-11-01T11:48:18.857Z,55.38
2022-11-01T11:50:46.340Z,55.75
2022-11-01T11:53:18.383Z,55.85
2022-11-01T11:55:54.112Z,54.86
2022-11-01T11:58:35.879Z,54.13
2022-11-01T12:01:11.382Z,54.61
2022-11-01T12:03:50.743Z,55.41
2022-11-01T12:06:30.163Z,55.25
2022-11-01T12:09:01.289Z,56.38
2022-11-01T12:11:46.599Z,55.10
2022-11-01T12:14:23.908Z,56.14
2022-11-01T12:16:52.136Z,56.23
2022-11-01T12:19:28.666Z,56.95
2022-11-01T12:22:03.481Z,55.35
2022-11-01T12:24:38.874Z,55.34
2022-11-01T12:27:14.340Z,55.75
2022-11-01T12:29:49.004Z,56.35
2022-11-01T12:32:36.900Z,56.86
2022-11-01T12:35:15.034Z,55.93
2022-11-01T12:38:04.604Z,56.54
2022-11-01T12:40:38.800Z,56.29
2022-11-01T12:43:21.281Z,57.29
2022-11-01T12:46:03.166Z,57.21
2022-11-01T12:48:36.403Z,57.21
2022-11-01T12:51:10.104Z,56.70
2022-11-01T12:53:48.802Z,56.73
2022-11-01T12:56:17.905Z,57.34
2022-11-01T12:58:45.430Z,56.69
2022-11-01T13:01:38.834Z,56.29
2022-11-01T13:04:16.509Z,56.83
2022-11-01T13:06:46.455Z,57.23
2022-11-01T13:09:58.226Z,56.96
2022-11-01T13:13:00.976Z,57.33
2022-11-01T13:15:39.577Z,56.69
2022-11-01T13:18:20.282Z,57.05
2022-11-01T13:20:50.842Z,58.70
2022-11-01T13:23:24.299Z,57.27
2022-11-01T13:26:14.613Z,56.79
2022-11-01T13:29:02.124Z,56.64
2022-11-01T13:31:59.590Z,57.40
2022-11-01T13:35:05.890Z,57.05
2022-11-01T13:37:39.087Z,57.65
2022-11-01T13:40:32.753Z,57.68
2022-11-01T13:43:34.059Z,57.92
2022-11-01T13:46:19.209Z,57.98
2022-11-01T13:48:59.607Z,58.47
2022-11-01T13:51:41.493Z,58.73
2022-11-01T13:54:36.333Z,58.94
2022-11-01T13:57:07.125Z,59.77
2022-11-01T13:59:37.109Z,60.81
2022-11-01T14:02:53.031Z,59.08
2022-11-01T14:05:38.620Z,58.32
2022-11-01T14:08:15.465Z,58.95
2022-11-01T14:10:50.622Z,58.95
2022-11-01T14:13:37.645Z,58.61
2022-11-01T14:16:25.520Z,59.71
2022-11-01T14:19:12.048Z,59.43
2022-11-01T14:21:45.844Z,61.02
2022-11-01T14:24:34.566Z,60.17
2022-11-01T14:27:06.032Z,60.66
2022-11-01T14:29:36.380Z,60.51
2022-11-01T14:32:04.269Z,60.91
2022-11-01T14:34:34.509Z,60.92
2022-11-01T14:37:15.224Z,61.57
2022-11-01T14:39:56.207Z,61.59
2022-11-01T14:42:32.915Z,61.47
2022-11-01T14:45:06.013Z,61.07
2022-11-01T14:47:41.241Z,60.16
2022-11-01T14:50:34.847Z,59.62
2022-11-01T14:53:32.338Z,59.26
2022-11-01T14:56:06.023Z,59.22
2022-11-01T14:58:34.142Z,58.88
2022-11-01T15:01:18.085Z,59.15
2022-11-01T15:03:57.163Z,58.83
2022-11-01T15:06:30.011Z,59.13
2022-11-01T15:08:59.557Z,58.75
2022-11-01T15:11:33.033Z,58.82
2022-11-01T15:14:04.428Z,58.93
2022-11-01T15:16:35.238Z,58.88
2022-11-01T15:19:13.885Z,59.50
2022-11-01T15:21:46.958Z,59.47
2022-11-01T15:24:20.418Z,59.75
2022-11-01T15:26:48.275Z,59.97
2022-11-01T15:29:21.778Z,59.98
2022-11-01T15:31:56.537Z,59.45
2022-11-01T15:34:31.336Z,59.40
2022-11-01T15:37:09.876Z,59.08
2022-11-01T15:39:40.067Z,59.40
2022-11-01T15:42:24.904Z,59.90
2022-11-01T15:44:55.536Z,59.82
2022-11-01T15:47:25.694Z,60.36
2022-11-01T15:50:00.599Z,63.41
2022-11-01T15:52:30.198Z,65.30
2022-11-01T15:55:15.585Z,67.49
2022-11-01T15:57:57.935Z,68.54
2022-11-01T16:00:32.275Z,70.32
2022-11-01T16:03:14.552Z,71.21
2022-11-01T16:05:47.696Z,71.70
2022-11-01T16:08:39.629Z,72.05
2022-11-01T16:11:08.310Z,73.28
2022-11-01T16:13:37.154Z,73.61
2022-11-01T16:16:06.600Z,73.53
2022-11-01T16:18:39.334Z,74.00
2022-11-01T16:21:27.905Z,75.16
2022-11-01T16:24:13.576Z,75.08
2022-11-01T16:27:02.623Z,75.38
2022-11-01T16:29:47.894Z,75.71
2022-11-01T16:32:33.361Z,76.03
2022-11-01T16:35:29.510Z,77.36
2022-11-01T16:38:00.657Z,78.98
2022-11-01T16:40:39.104Z,79.62
2022-11-01T16:43:11.733Z,79.42
2022-11-01T16:45:45.050Z,79.93
2022-11-01T16:48:50.321Z,79.93
2022-11-01T16:51:17.869Z,79.70
2022-11-01T16:53:48.322Z,80.03
2022-11-01T16:56:43.016Z,80.40
2022-11-01T16:59:33.866Z,80.39
2022-11-01T17:02:11.375Z,80.71
2022-11-01T17:04:42.969Z,80.45
2022-11-01T17:07:13.678Z,81.36
2022-11-01T17:09:43.850Z,81.27
2022-11-01T17:12:17.727Z,81.12
2022-11-01T17:14:44.966Z,80.90
2022-11-01T17:17:18.464Z,79.93
2022-11-01T17:19:52.347Z,79.54
2022-11-01T17:22:29.469Z,79.48
2022-11-01T17:24:57.011Z,79.73
2022-11-01T17:27:27.626Z,79.44
2022-11-01T17:29:54.902Z,80.26
2022-11-01T17:32:22.228Z,80.24
2022-11-01T17:34:49.896Z,80.22
2022-11-01T17:37:17.861Z,80.73
2022-11-01T17:39:47.232Z,80.70
2022-11-01T17:42:14.500Z,80.23
2022-11-01T17:44:41.697Z,80.54
2022-11-01T17:47:14.171Z,81.09
2022-11-01T17:49:41.806Z,81.04
2022-11-01T17:52:11.525Z,81.24
2022-11-01T17:54:41.531Z,81.74
2022-11-01T17:57:11.570Z,82.02
2022-11-01T17:59:38.799Z,82.25
2022-11-01T18:02:06.118Z,83.16
2022-11-01T18:04:35.688Z,84.57
2022-11-01T18:07:06.099Z,84.12
2022-11-01T18:09:34.133Z,84.10
2022-11-01T18:12:19.613Z,83.19
2022-11-01T18:15:08.134Z,84.03
2022-11-01T18:17:59.939Z,83.68
2022-11-01T18:20:48.517Z,84.55
2022-11-01T18:23:23.130Z,84.46
2022-11-01T18:25:51.146Z,85.43
2022-11-01T18:28:24.715Z,85.14
2022-11-01T18:30:58.332Z,84.46
2022-11-01T18:33:37.672Z,84.83
2022-11-01T18:36:14.001Z,85.74
2022-11-01T18:39:14.411Z,84.98
2022-11-01T18:41:47.594Z,85.42
2022-11-01T18:44:19.656Z,85.28
2022-11-01T18:47:14.724Z,85.67
2022-11-01T18:49:45.868Z,85.86
2022-11-01T18:52:18.610Z,86.34
2022-11-01T18:54:55.343Z,78.92
2022-11-01T18:57:23.858Z,81.96
2022-11-01T18:59:53.194Z,83.12
2022-11-01T19:02:21.987Z,83.95
2022-11-01T19:04:52.069Z,85.33
2022-11-01T19:07:23.365Z,86.52
2022-11-01T19:09:54.711Z,86.69
2022-11-01T19:12:28.286Z,86.62
2022-11-01T19:15:02.953Z,86.33
2022-11-01T19:17:37.439Z,85.94
2022-11-01T19:20:28.920Z,86.44
2022-11-01T19:23:01.195Z,86.91
2022-11-01T19:25:35.005Z,86.61
2022-11-01T19:28:12.571Z,86.21
2022-11-01T19:30:39.824Z,85.99
2022-11-01T19:33:22.049Z,85.80
2022-11-01T19:35:54.303Z,84.34
2022-11-01T19:38:24.817Z,85.07
2022-11-01T19:40:55.128Z,85.02
2022-11-01T19:43:28.363Z,84.95
2022-11-01T19:45:58.407Z,84.72
2022-11-01T19:48:30.733Z,84.18
2022-11-01T19:50:58.127Z,83.73
2022-11-01T19:53:33.943Z,84.43
2022-11-01T19:56:04.713Z,84.07
2022-11-01T19:58:41.980Z,83.80
2022-11-01T20:01:33.071Z,84.82
2022-11-01T20:04:00.419Z,85.30
2022-11-01T20:06:27.596Z,85.95
2022-11-01T20:09:06.098Z,81.99
2022-11-01T20:11:33.361Z,83.83
2022-11-01T20:14:01.173Z,85.15
2022-11-01T20:16:28.668Z,85.75
2022-11-01T20:18:55.943Z,85.15
2022-11-01T20:21:23.200Z,85.38
2022-11-01T20:23:50.403Z,86.22
2022-11-01T20:26:17.613Z,86.60
2022-11-01T20:28:45.064Z,86.44
2022-11-01T20:31:15.541Z,86.42
2022-11-01T20:33:42.818Z,87.08
2022-11-01T20:36:11.476Z,87.11
2022-11-01T20:38:39.528Z,87.41
2022-11-01T20:41:06.824Z,87.70
2022-11-01T20:43:34.741Z,88.23
2022-11-01T20:46:02.027Z,87.88
2022-11-01T20:48:32.750Z,88.00
2022-11-01T20:50:59.971Z,87.97
2022-11-01T20:53:29.832Z,88.77
2022-11-01T20:55:57.560Z,89.31
2022-11-01T20:58:24.842Z,89.12
2022-11-01T21:00:52.230Z,88.46
2022-11-01T21:03:21.365Z,89.36
2022-11-01T21:05:49.440Z,88.40
2022-11-01T21:08:24.433Z,88.63
2022-11-01T21:10:59.642Z,89.16
2022-11-01T21:13:35.481Z,89.92
2022-11-01T21:16:07.978Z,89.07
2022-11-01T21:18:38.870Z,88.28
2022-11-01T21:21:28.802Z,88.55
2022-11-01T21:23:56.223Z,89.60
2022-11-01T21:26:29.396Z,89.71
2022-11-01T21:29:19.369Z,89.60
2022-11-01T21:31:46.754Z,90.38
2022-11-01T21:34:13.992Z,90.46
2022-11-01T21:36:48.819Z,90.02
2022-11-01T21:39:20.759Z,90.41
2022-11-01T21:42:00.852Z,89.93
2022-11-01T21:44:35.607Z,91.18
2022-11-01T21:47:08.834Z,90.87
2022-11-01T21:49:36.446Z,91.06
2022-11-01T21:52:06.280Z,91.08
2022-11-01T21:54:35.639Z,90.57
2022-11-01T21:57:05.178Z,90.81
2022-11-01T21:59:33.052Z,91.25
2022-11-01T22:02:01.134Z,91.48
2022-11-01T22:04:30.258Z,91.51
2022-11-01T22:06:59.095Z,91.69
2022-11-01T22:09:27.131Z,92.13
2022-11-01T22:11:54.432Z,92.25
2022-11-01T22:14:22.759Z,92.98
2022-11-01T22:16:50.103Z,92.55
2022-11-01T22:19:24.535Z,93.19
2022-11-01T22:21:51.732Z,92.55
2022-11-01T22:24:19.169Z,93.41
2022-11-01T22:26:46.426Z,92.85
2022-11-01T22:29:13.595Z,92.82
2022-11-01T22:31:43.337Z,92.74
2022-11-01T22:34:10.538Z,94.85
2022-11-01T22:36:40.536Z,92.37
2022-11-01T22:39:19.070Z,92.70
2022-11-01T22:41:49.532Z,92.78
2022-11-01T22:44:18.982Z,94.42
2022-11-01T22:46:58.215Z,93.67
2022-11-01T22:49:27.161Z,93.84
2022-11-01T22:52:03.347Z,93.71
2022-11-01T22:54:33.583Z,94.45
2022-11-01T22:57:18.841Z,93.97
2022-11-01T22:59:56.104Z,94.81
2022-11-01T23:02:34.944Z,93.64
2022-11-01T23:05:08.440Z,93.65
2022-11-01T23:07:45.890Z,93.47
2022-11-01T23:10:26.658Z,94.25
2022-11-01T23:13:16.540Z,96.88
2022-11-01T23:15:44.691Z,94.83
2022-11-01T23:18:18.810Z,94.40
2022-11-01T23:20:54.152Z,95.00
2022-11-01T23:23:22.216Z,97.12
2022-11-01T23:25:50.455Z,95.28
2022-11-01T23:28:18.274Z,95.02
2022-11-01T23:30:57.413Z,94.96
2022-11-01T23:33:41.394Z,96.16
2022-11-01T23:36:26.050Z,95.39
2022-11-01T23:39:14.128Z,95.38
2022-11-01T23:41:47.473Z,95.22
2022-11-01T23:44:28.421Z,96.76
2022-11-01T23:47:20.811Z,95.91
2022-11-01T23:49:56.381Z,95.76
2022-11-01T23:52:35.462Z,95.63
2022-11-01T23:55:04.254Z,96.24
2022-11-01T23:57:31.482Z,95.85
2022-11-01T23:59:58.687Z,96.41
